createdAt,value
2022-09-28T00:01:27.080Z,99236.41
2022-09-28T00:03:59.662Z,99234.72
2022-09-28T00:06:30.127Z,99230.31
2022-09-28T00:08:58.520Z,99224.81
2022-09-28T00:11:28.179Z,99226.66
2022-09-28T00:14:01.866Z,99229.34
2022-09-28T00:16:33.211Z,99223.84
2022-09-28T00:19:00.384Z,99226.78
2022-09-28T00:21:32.645Z,99218.84
2022-09-28T00:24:15.591Z,99223.38
2022-09-28T00:26:51.733Z,99220.78
2022-09-28T00:29:26.957Z,99219.84
2022-09-28T00:32:03.316Z,99219.94
2022-09-28T00:34:34.672Z,99213.69
2022-09-28T00:37:04.106Z,99211.16
2022-09-28T00:39:35.902Z,99210.28
2022-09-28T00:42:05.533Z,99209.31
2022-09-28T00:44:59.907Z,99208.47
2022-09-28T00:47:41.497Z,99209.44
2022-09-28T00:50:31.124Z,99206.63
2022-09-28T00:53:09.312Z,99202.13
2022-09-28T00:55:51.130Z,99208.09
2022-09-28T00:58:25.520Z,99200.75
2022-09-28T01:00:56.163Z,99207.56
2022-09-28T01:03:23.732Z,99197.69
2022-09-28T01:05:55.027Z,99205.63
2022-09-28T01:08:25.336Z,99207.31
2022-09-28T01:10:52.416Z,99200.97
2022-09-28T01:13:23.511Z,99207.06
2022-09-28T01:16:31.150Z,99201.69
2022-09-28T01:19:52.511Z,99197.41
2022-09-28T01:22:31.299Z,99194.00
2022-09-28T01:25:17.465Z,99189.75
2022-09-28T01:28:23.637Z,99187.31
2022-09-28T01:31:15.951Z,99195.66
2022-09-28T01:33:56.900Z,99192.50
2022-09-28T01:36:48.086Z,99198.09
2022-09-28T01:39:30.416Z,99195.53
2022-09-28T01:42:08.496Z,99203.72
2022-09-28T01:44:42.009Z,99209.81
2022-09-28T01:47:17.771Z,99204.19
2022-09-28T01:49:58.397Z,99203.47
2022-09-28T01:52:40.549Z,99201.50
2022-09-28T01:55:30.976Z,99200.06
2022-09-28T01:58:18.993Z,99200.59
2022-09-28T02:00:56.547Z,99195.69
2022-09-28T02:03:48.800Z,99200.34
2022-09-28T02:06:26.983Z,99201.47
2022-09-28T02:09:00.387Z,99197.19
2022-09-28T02:11:43.263Z,99195.22
2022-09-28T02:14:16.274Z,99190.59
2022-09-28T02:16:50.598Z,99186.69
2022-09-28T02:19:25.947Z,99188.38
2022-09-28T02:22:23.805Z,99191.06
2022-09-28T02:25:10.338Z,99193.63
2022-09-28T02:27:52.369Z,99193.50
2022-09-28T02:30:19.510Z,99194.22
2022-09-28T02:32:51.500Z,99205.44
2022-09-28T02:35:19.684Z,99200.78
2022-09-28T02:37:47.343Z,99199.53
2022-09-28T02:40:14.343Z,99203.84
2022-09-28T02:43:24.845Z,99205.16
2022-09-28T02:46:37.433Z,99199.50
2022-09-28T02:49:32.061Z,99189.75
2022-09-28T02:52:23.044Z,99194.00
2022-09-28T02:54:58.978Z,99194.41
2022-09-28T02:57:46.311Z,99197.09
2022-09-28T03:00:23.978Z,99200.03
2022-09-28T03:03:45.182Z,99200.53
2022-09-28T03:06:29.689Z,99198.94
2022-09-28T03:09:19.466Z,99197.84
2022-09-28T03:12:00.375Z,99199.53
2022-09-28T03:14:27.432Z,99192.72
2022-09-28T03:16:57.213Z,99194.69
2022-09-28T03:19:32.432Z,99193.13
2022-09-28T03:22:00.926Z,99197.63
2022-09-28T03:24:27.813Z,99194.94
2022-09-28T03:26:54.767Z,99199.34
2022-09-28T03:29:22.787Z,99197.25
2022-09-28T03:31:56.580Z,99204.91
2022-09-28T03:34:23.513Z,99202.97
2022-09-28T03:36:51.484Z,99194.78
2022-09-28T03:39:18.457Z,99202.72
2022-09-28T03:41:45.458Z,99201.03
2022-09-28T03:44:12.809Z,99199.31
2022-09-28T03:46:39.665Z,99204.69
2022-09-28T03:49:10.376Z,99204.06
2022-09-28T03:51:37.243Z,99201.75
2022-09-28T03:54:04.968Z,99205.44
2022-09-28T03:56:32.451Z,99207.41
2022-09-28T03:58:59.337Z,99209.09
2022-09-28T04:01:26.956Z,99209.97
2022-09-28T04:03:58.010Z,99205.44
2022-09-28T04:06:26.145Z,99214.22
2022-09-28T04:08:53.101Z,99212.50
2022-09-28T04:11:20.059Z,99208.84
2022-09-28T04:13:50.379Z,99207.41
2022-09-28T04:16:18.577Z,99196.91
2022-09-28T04:18:54.759Z,99201.56
2022-09-28T04:21:40.837Z,99195.69
2022-09-28T04:24:11.308Z,99203.16
2022-09-28T04:26:38.195Z,99205.00
2022-09-28T04:29:17.221Z,99203.28
2022-09-28T04:31:51.853Z,99200.84
2022-09-28T04:34:22.955Z,99196.69
2022-09-28T04:36:50.466Z,99198.91
2022-09-28T04:39:19.313Z,99193.69
2022-09-28T04:41:52.923Z,99193.19
2022-09-28T04:44:19.705Z,99198.69
2022-09-28T04:46:47.882Z,99201.63
2022-09-28T04:49:29.890Z,99194.53
2022-09-28T04:52:01.771Z,99200.16
2022-09-28T04:54:28.586Z,99205.78
2022-09-28T04:56:57.747Z,99204.19
2022-09-28T04:59:24.889Z,99207.72
2022-09-28T05:01:53.644Z,99211.16
2022-09-28T05:04:25.586Z,99213.84
2022-09-28T05:07:26.916Z,99221.00
2022-09-28T05:09:55.247Z,99222.13
2022-09-28T05:12:22.074Z,99218.72
2022-09-28T05:14:48.919Z,99217.72
2022-09-28T05:17:15.808Z,99219.94
2022-09-28T05:20:09.374Z,99223.56
2022-09-28T05:22:36.344Z,99228.94
2022-09-28T05:25:05.591Z,99216.63
2022-09-28T05:27:44.030Z,99220.41
2022-09-28T05:30:26.357Z,99226.03
2022-09-28T05:33:08.980Z,99220.19
2022-09-28T05:35:47.855Z,99221.03
2022-09-28T05:38:16.728Z,99218.47
2022-09-28T05:40:43.783Z,99212.34
2022-09-28T05:43:10.687Z,99221.53
2022-09-28T05:45:38.328Z,99224.56
2022-09-28T05:48:05.426Z,99227.50
2022-09-28T05:50:32.270Z,99227.50
2022-09-28T05:53:10.082Z,99222.97
2022-09-28T05:55:38.202Z,99230.41
2022-09-28T05:58:07.918Z,99233.59
2022-09-28T06:00:36.516Z,99232.00
2022-09-28T06:03:09.443Z,99240.28
2022-09-28T06:05:39.348Z,99240.66
2022-09-28T06:08:10.395Z,99247.25
2022-09-28T06:10:38.928Z,99237.72
2022-09-28T06:13:07.329Z,99237.56
2022-09-28T06:15:36.427Z,99250.16
2022-09-28T06:18:09.880Z,99247.47
2022-09-28T06:20:42.281Z,99253.69
2022-09-28T06:23:14.351Z,99246.22
2022-09-28T06:25:41.335Z,99253.09
2022-09-28T06:28:14.584Z,99255.38
2022-09-28T06:30:43.826Z,99254.31
2022-09-28T06:33:16.241Z,99257.44
2022-09-28T06:35:43.260Z,99262.56
2022-09-28T06:38:11.108Z,99264.91
2022-09-28T06:40:38.958Z,99265.75
2022-09-28T06:43:11.732Z,99265.97
2022-09-28T06:45:57.031Z,99266.22
2022-09-28T06:48:44.018Z,99267.47
2022-09-28T06:51:15.060Z,99270.41
2022-09-28T06:54:05.139Z,99264.78
2022-09-28T06:56:48.126Z,99273.56
2022-09-28T06:59:15.626Z,99274.22
2022-09-28T07:01:42.566Z,99274.88
2022-09-28T07:04:27.867Z,99271.56
2022-09-28T07:07:14.982Z,99272.44
2022-09-28T07:10:00.478Z,99279.66
2022-09-28T07:13:05.361Z,99288.75
2022-09-28T07:15:43.872Z,99290.22
2022-09-28T07:18:13.558Z,99291.59
2022-09-28T07:20:52.483Z,99289.75
2022-09-28T07:23:20.977Z,99287.78
2022-09-28T07:26:18.963Z,99297.41
2022-09-28T07:29:07.250Z,99301.97
2022-09-28T07:31:40.414Z,99302.09
2022-09-28T07:34:39.810Z,99314.22
2022-09-28T07:37:13.319Z,99316.47
2022-09-28T07:39:59.311Z,99319.44
2022-09-28T07:42:29.891Z,99309.63
2022-09-28T07:44:58.274Z,99317.00
2022-09-28T07:47:34.675Z,99317.84
2022-09-28T07:50:21.273Z,99319.31
2022-09-28T07:53:00.669Z,99319.50
2022-09-28T07:55:54.578Z,99313.97
2022-09-28T07:58:38.799Z,99326.19
2022-09-28T08:01:24.058Z,99324.09
2022-09-28T08:03:51.584Z,99324.66
2022-09-28T08:06:19.030Z,99330.53
2022-09-28T08:08:46.040Z,99324.59
2022-09-28T08:11:20.704Z,99323.78
2022-09-28T08:14:13.262Z,99332.34
2022-09-28T08:16:54.757Z,99332.78
2022-09-28T08:19:52.487Z,99334.09
2022-09-28T08:22:20.261Z,99339.66
2022-09-28T08:24:49.893Z,99342.41
2022-09-28T08:27:18.376Z,99333.06
2022-09-28T08:29:45.377Z,99334.78
2022-09-28T08:32:31.131Z,99335.50
2022-09-28T08:35:16.559Z,99335.41
2022-09-28T08:38:11.604Z,99344.50
2022-09-28T08:41:52.786Z,99345.97
2022-09-28T08:44:48.181Z,99352.25
2022-09-28T08:48:11.936Z,99353.53
2022-09-28T08:51:31.483Z,99353.69
2022-09-28T08:54:24.366Z,99365.34
2022-09-28T08:57:32.117Z,99367.09
2022-09-28T09:00:02.611Z,99371.38
2022-09-28T09:02:39.655Z,99377.22
2022-09-28T09:05:19.051Z,99379.63
2022-09-28T09:08:35.057Z,99381.88
2022-09-28T09:11:23.207Z,99371.63
2022-09-28T09:14:20.876Z,99376.16
2022-09-28T09:17:15.454Z,99381.00
2022-09-28T09:20:33.971Z,99373.59
2022-09-28T09:23:56.810Z,99375.00
2022-09-28T09:26:38.569Z,99384.63
2022-09-28T09:29:37.491Z,99380.44
2022-09-28T09:32:17.205Z,99384.81
2022-09-28T09:35:18.557Z,99386.50
2022-09-28T09:38:58.120Z,99395.22
2022-09-28T09:42:08.329Z,99385.72
2022-09-28T09:45:32.629Z,99399.72
2022-09-28T09:48:36.961Z,99404.72
2022-09-28T09:51:19.630Z,99405.34
2022-09-28T09:54:00.116Z,99403.63
2022-09-28T09:56:45.090Z,99401.09
2022-09-28T09:59:31.112Z,99399.66
2022-09-28T10:02:35.377Z,99397.78
2022-09-28T10:05:11.279Z,99401.28
2022-09-28T10:08:02.976Z,99395.72
2022-09-28T10:10:38.845Z,99404.28
2022-09-28T10:13:11.572Z,99399.13
2022-09-28T10:15:42.384Z,99401.03
2022-09-28T10:18:21.361Z,99395.19
2022-09-28T10:21:10.729Z,99394.13
2022-09-28T10:24:03.945Z,99398.63
2022-09-28T10:26:48.219Z,99397.03
2022-09-28T10:29:25.184Z,99400.16
2022-09-28T10:32:02.913Z,99398.06
2022-09-28T10:34:35.517Z,99388.13
2022-09-28T10:37:12.835Z,99384.78
2022-09-28T10:40:00.065Z,99396.69
2022-09-28T10:42:34.040Z,99403.13
2022-09-28T10:45:23.764Z,99396.47
2022-09-28T10:47:51.418Z,99391.63
2022-09-28T10:50:28.044Z,99398.59
2022-09-28T10:53:20.588Z,99390.75
2022-09-28T10:56:06.064Z,99395.47
2022-09-28T10:58:42.157Z,99400.22
2022-09-28T11:01:23.114Z,99395.84
2022-09-28T11:04:01.600Z,99396.91
2022-09-28T11:06:38.709Z,99390.19
2022-09-28T11:09:29.802Z,99388.16
2022-09-28T11:12:04.482Z,99391.22
2022-09-28T11:14:42.612Z,99387.09
2022-09-28T11:17:40.487Z,99385.69
2022-09-28T11:20:27.461Z,99393.47
2022-09-28T11:23:20.458Z,99386.75
2022-09-28T11:26:02.871Z,99391.91
2022-09-28T11:28:35.906Z,99386.84
2022-09-28T11:31:09.478Z,99386.16
2022-09-28T11:33:47.866Z,99388.56
2022-09-28T11:37:05.369Z,99388.75
2022-09-28T11:40:04.649Z,99385.06
2022-09-28T11:43:09.568Z,99385.25
2022-09-28T11:45:59.286Z,99387.59
2022-09-28T11:48:54.584Z,99384.88
2022-09-28T11:51:30.300Z,99386.88
2022-09-28T11:54:14.197Z,99387.19
2022-09-28T11:56:48.645Z,99390.94
2022-09-28T11:59:27.602Z,99382.63
2022-09-28T12:02:03.749Z,99381.81
2022-09-28T12:05:15.845Z,99384.88
2022-09-28T12:08:17.536Z,99385.91
2022-09-28T12:11:27.260Z,99384.91
2022-09-28T12:14:30.963Z,99390.66
2022-09-28T12:17:09.690Z,99388.66
2022-09-28T12:19:50.655Z,99386.59
2022-09-28T12:22:33.386Z,99383.88
2022-09-28T12:25:05.462Z,99390.47
2022-09-28T12:27:50.567Z,99383.19
2022-09-28T12:30:21.963Z,99379.66
2022-09-28T12:32:59.973Z,99380.78
2022-09-28T12:36:12.919Z,99383.06
2022-09-28T12:39:17.601Z,99386.66
2022-09-28T12:42:16.890Z,99384.50
2022-09-28T12:45:02.161Z,99385.72
2022-09-28T12:48:22.560Z,99382.72
2022-09-28T12:51:43.646Z,99387.25
2022-09-28T12:54:34.581Z,99379.63
2022-09-28T12:57:36.404Z,99382.47
2022-09-28T13:00:17.705Z,99391.84
2022-09-28T13:03:03.124Z,99391.03
2022-09-28T13:06:26.407Z,99387.41
2022-09-28T13:08:58.705Z,99381.91
2022-09-28T13:11:45.367Z,99373.25
2022-09-28T13:14:53.181Z,99369.81
2022-09-28T13:17:44.868Z,99381.63
2022-09-28T13:20:56.378Z,99376.56
2022-09-28T13:23:37.772Z,99379.84
2022-09-28T13:26:35.352Z,99383.59
2022-09-28T13:29:14.214Z,99379.34
2022-09-28T13:31:53.262Z,99376.38
2022-09-28T13:34:26.255Z,99390.38
2022-09-28T13:37:17.350Z,99389.16
2022-09-28T13:39:44.060Z,99399.72
2022-09-28T13:42:34.024Z,99402.56
2022-09-28T13:45:03.605Z,99404.72
2022-09-28T13:47:42.521Z,99413.06
2022-09-28T13:50:27.492Z,99404.28
2022-09-28T13:53:16.633Z,99403.53
2022-09-28T13:56:35.410Z,99406.84
2022-09-28T13:59:14.526Z,99404.41
2022-09-28T14:01:55.903Z,99413.53
2022-09-28T14:04:47.449Z,99419.88
2022-09-28T14:07:46.557Z,99407.53
2022-09-28T14:10:25.806Z,99410.19
2022-09-28T14:12:54.293Z,99406.56
2022-09-28T14:15:30.055Z,99407.25
2022-09-28T14:18:36.758Z,99430.16
2022-09-28T14:21:40.944Z,99432.53
2022-09-28T14:24:30.231Z,99424.16
2022-09-28T14:27:32.919Z,99438.69
2022-09-28T14:30:13.999Z,99433.63
2022-09-28T14:32:53.956Z,99430.06
2022-09-28T14:35:31.746Z,99434.44
2022-09-28T14:38:35.466Z,99446.38
2022-09-28T14:41:18.060Z,99432.69
2022-09-28T14:43:44.812Z,99452.59
2022-09-28T14:46:11.649Z,99459.13
2022-09-28T14:49:04.326Z,99459.16
2022-09-28T14:51:31.042Z,99467.56
2022-09-28T14:54:29.637Z,99465.47
2022-09-28T14:57:17.301Z,99463.91
2022-09-28T14:59:46.231Z,99453.25
2022-09-28T15:02:38.464Z,99456.81
2022-09-28T15:05:28.889Z,99453.53
2022-09-28T15:07:56.089Z,99459.22
2022-09-28T15:10:32.690Z,99459.91
2022-09-28T15:13:03.392Z,99466.31
2022-09-28T15:15:35.619Z,99471.69
2022-09-28T15:18:33.439Z,99474.25
2022-09-28T15:21:01.534Z,99480.78
2022-09-28T15:23:36.914Z,99473.50
2022-09-28T15:26:08.437Z,99475.50
2022-09-28T15:28:44.955Z,99483.06
2022-09-28T15:31:19.545Z,99477.66
2022-09-28T15:34:05.147Z,99474.53
2022-09-28T15:36:43.297Z,99483.06
2022-09-28T15:39:25.692Z,99484.75
2022-09-28T15:41:53.243Z,99484.22
2022-09-28T15:44:36.226Z,99480.38
2022-09-28T15:47:40.092Z,99490.06
2022-09-28T15:50:32.993Z,99482.25
2022-09-28T15:53:05.657Z,99481.13
2022-09-28T15:55:42.392Z,99487.06
2022-09-28T15:58:22.629Z,99479.28
2022-09-28T16:01:23.603Z,99479.94
2022-09-28T16:03:50.544Z,99485.09
2022-09-28T16:06:17.622Z,99482.00
2022-09-28T16:08:46.205Z,99488.94
2022-09-28T16:11:26.212Z,99479.94
2022-09-28T16:14:07.311Z,99476.00
2022-09-28T16:16:48.609Z,99479.53
2022-09-28T16:19:25.890Z,99486.69
2022-09-28T16:21:58.979Z,99474.06
2022-09-28T16:24:33.023Z,99481.78
2022-09-28T16:27:14.275Z,99484.50
2022-09-28T16:29:45.024Z,99484.22
2022-09-28T16:32:26.765Z,99488.78
2022-09-28T16:35:11.568Z,99490.91
2022-09-28T16:37:43.302Z,99490.50
2022-09-28T16:40:11.976Z,99490.78
2022-09-28T16:42:49.071Z,99486.50
2022-09-28T16:45:23.769Z,99487.66
2022-09-28T16:47:52.370Z,99492.50
2022-09-28T16:50:21.654Z,99502.75
2022-09-28T16:53:40.342Z,99493.94
2022-09-28T16:56:07.751Z,99498.19
2022-09-28T16:58:36.541Z,99496.47
2022-09-28T17:01:03.754Z,99500.72
2022-09-28T17:03:30.766Z,99505.84
2022-09-28T17:05:57.602Z,99502.16
2022-09-28T17:08:25.591Z,99515.66
2022-09-28T17:11:13.914Z,99506.84
2022-09-28T17:13:43.665Z,99512.94
2022-09-28T17:16:17.755Z,99517.06
2022-09-28T17:18:46.044Z,99516.34
2022-09-28T17:21:19.398Z,99516.63
2022-09-28T17:23:49.211Z,99518.63
2022-09-28T17:26:36.026Z,99521.44
2022-09-28T17:29:02.940Z,99522.97
2022-09-28T17:31:30.405Z,99522.66
2022-09-28T17:33:57.481Z,99528.50
2022-09-28T17:36:25.900Z,99529.88
2022-09-28T17:38:52.748Z,99523.31
2022-09-28T17:41:21.168Z,99526.53
2022-09-28T17:43:48.959Z,99528.94
2022-09-28T17:46:33.947Z,99529.47
2022-09-28T17:49:05.585Z,99528.03
2022-09-28T17:51:37.502Z,99532.84
2022-09-28T17:54:07.023Z,99533.13
2022-09-28T17:56:35.609Z,99530.69
2022-09-28T17:59:06.640Z,99534.38
2022-09-28T18:01:38.045Z,99541.88
2022-09-28T18:04:08.827Z,99541.28
2022-09-28T18:06:37.160Z,99544.13
2022-09-28T18:09:05.275Z,99546.09
2022-09-28T18:11:33.771Z,99544.66
2022-09-28T18:14:00.997Z,99541.66
2022-09-28T18:16:29.177Z,99541.06
2022-09-28T18:18:56.490Z,99540.84
2022-09-28T18:21:23.355Z,99543.09
2022-09-28T18:23:50.191Z,99549.84
2022-09-28T18:26:19.588Z,99551.22
2022-09-28T18:28:46.952Z,99550.03
2022-09-28T18:31:15.609Z,99548.84
2022-09-28T18:33:52.451Z,99551.06
2022-09-28T18:36:19.265Z,99560.41
2022-09-28T18:38:46.063Z,99553.56
2022-09-28T18:41:15.792Z,99552.97
2022-09-28T18:43:49.142Z,99558.25
2022-09-28T18:46:18.320Z,99558.38
2022-09-28T18:48:47.646Z,99557.50
2022-09-28T18:51:14.851Z,99560.22
2022-09-28T18:53:42.187Z,99554.09
2022-09-28T18:56:13.124Z,99552.63
2022-09-28T18:58:42.224Z,99556.56
2022-09-28T19:01:36.252Z,99556.81
2022-09-28T19:04:07.110Z,99554.50
2022-09-28T19:06:36.983Z,99553.91
2022-09-28T19:09:04.383Z,99555.28
2022-09-28T19:11:31.243Z,99555.63
2022-09-28T19:13:58.080Z,99563.25
2022-09-28T19:16:28.749Z,99557.13
2022-09-28T19:18:57.929Z,99559.09
2022-09-28T19:21:25.560Z,99556.66
2022-09-28T19:23:55.025Z,99560.44
2022-09-28T19:26:26.897Z,99568.66
2022-09-28T19:28:57.341Z,99564.97
2022-09-28T19:31:26.526Z,99564.75
2022-09-28T19:33:53.370Z,99571.59
2022-09-28T19:36:24.218Z,99571.34
2022-09-28T19:38:53.211Z,99566.81
2022-09-28T19:41:47.529Z,99564.97
2022-09-28T19:44:24.740Z,99571.34
2022-09-28T19:46:56.213Z,99572.31
2022-09-28T19:49:25.962Z,99573.16
2022-09-28T19:52:15.179Z,99572.19
2022-09-28T19:54:56.678Z,99572.44
2022-09-28T19:57:31.697Z,99570.84
2022-09-28T20:00:02.793Z,99572.81
2022-09-28T20:02:34.846Z,99575.75
2022-09-28T20:05:02.095Z,99575.75
2022-09-28T20:07:32.775Z,99581.38
2022-09-28T20:09:59.643Z,99583.56
2022-09-28T20:12:26.439Z,99588.50
2022-09-28T20:14:53.267Z,99582.84
2022-09-28T20:17:21.681Z,99585.28
2022-09-28T20:19:51.108Z,99583.19
2022-09-28T20:22:18.593Z,99581.25
2022-09-28T20:24:45.521Z,99583.56
2022-09-28T20:27:12.274Z,99596.63
2022-09-28T20:29:39.070Z,99595.28
2022-09-28T20:32:05.916Z,99594.06
2022-09-28T20:34:34.003Z,99587.22
2022-09-28T20:37:01.429Z,99587.72
2022-09-28T20:39:28.265Z,99590.63
2022-09-28T20:41:56.003Z,99587.94
2022-09-28T20:44:22.796Z,99591.59
2022-09-28T20:46:51.569Z,99587.94
2022-09-28T20:49:18.362Z,99594.03
2022-09-28T20:51:45.123Z,99594.78
2022-09-28T20:54:11.953Z,99585.75
2022-09-28T20:56:39.242Z,99591.97
2022-09-28T20:59:12.484Z,99589.41
2022-09-28T21:01:40.510Z,99587.94
2022-09-28T21:04:10.227Z,99592.06
2022-09-28T21:06:41.651Z,99597.06
2022-09-28T21:09:10.983Z,99600.97
2022-09-28T21:11:39.796Z,99590.22
2022-09-28T21:14:09.608Z,99593.88
2022-09-28T21:16:37.417Z,99600.09
2022-09-28T21:19:04.554Z,99594.72
2022-09-28T21:21:31.510Z,99595.59
2022-09-28T21:23:59.051Z,99592.91
2022-09-28T21:26:31.033Z,99597.31
2022-09-28T21:29:01.462Z,99599.00
2022-09-28T21:31:39.383Z,99602.53
2022-09-28T21:34:06.983Z,99596.44
2022-09-28T21:36:34.293Z,99600.09
2022-09-28T21:39:01.060Z,99602.91
2022-09-28T21:41:29.094Z,99598.38
2022-09-28T21:43:56.144Z,99593.25
2022-09-28T21:46:23.032Z,99605.94
2022-09-28T21:48:53.747Z,99609.84
2022-09-28T21:51:21.706Z,99609.47
2022-09-28T21:53:49.251Z,99610.75
2022-09-28T21:56:16.479Z,99610.13
2022-09-28T21:58:43.291Z,99614.03
2022-09-28T22:01:18.017Z,99617.91
2022-09-28T22:03:48.900Z,99612.16
2022-09-28T22:06:19.720Z,99615.19
2022-09-28T22:08:47.877Z,99619.94
2022-09-28T22:11:19.368Z,99630.03
2022-09-28T22:13:52.518Z,99618.66
2022-09-28T22:16:23.421Z,99614.50
2022-09-28T22:18:51.005Z,99621.56
2022-09-28T22:21:24.148Z,99623.63
2022-09-28T22:23:51.354Z,99623.00
2022-09-28T22:26:22.688Z,99622.25
2022-09-28T22:28:56.398Z,99625.81
2022-09-28T22:31:27.522Z,99624.09
2022-09-28T22:33:55.185Z,99629.34
2022-09-28T22:36:22.257Z,99631.78
2022-09-28T22:38:49.853Z,99629.88
2022-09-28T22:41:20.899Z,99634.25
2022-09-28T22:43:50.151Z,99628.78
2022-09-28T22:46:21.198Z,99627.69
2022-09-28T22:48:51.986Z,99624.78
2022-09-28T22:51:19.764Z,99631.88
2022-09-28T22:53:49.551Z,99624.03
2022-09-28T22:56:18.981Z,99625.97
2022-09-28T22:58:47.307Z,99631.69
2022-09-28T23:01:18.590Z,99635.25
2022-09-28T23:03:47.007Z,99630.09
2022-09-28T23:06:19.813Z,99632.03
2022-09-28T23:08:48.131Z,99632.88
2022-09-28T23:11:15.641Z,99630.31
2022-09-28T23:13:56.309Z,99640.81
2022-09-28T23:16:25.805Z,99628.59
2022-09-28T23:18:55.133Z,99632.03
2022-09-28T23:21:26.658Z,99623.00
2022-09-28T23:24:01.548Z,99628.59
2022-09-28T23:26:32.336Z,99629.34
2022-09-28T23:29:00.336Z,99633.97
2022-09-28T23:31:31.270Z,99626.03
2022-09-28T23:34:07.196Z,99641.28
2022-09-28T23:36:34.720Z,99631.81
2022-09-28T23:39:03.107Z,99630.22
2022-09-28T23:41:30.316Z,99638.28
2022-09-28T23:43:57.387Z,99631.44
2022-09-28T23:46:24.488Z,99634.69
2022-09-28T23:48:51.604Z,99635.00
2022-09-28T23:51:18.822Z,99639.63
2022-09-28T23:53:46.160Z,99642.19
2022-09-28T23:56:14.486Z,99640.38
2022-09-28T23:58:41.367Z,99639.72
